Time;durP1;ratioP1;P1;durP2;ratioP2;P2;SDS_P1;SDS_P2;PMS_P1;PMS_P2;Temp;Humidity;BMP_temperature;BMP_pressure;BME280_temperature;BME280_humidity;BME280_pressure;Samples;Min_cycle;Max_cycle;Signal;HPM_P1;HPM_P2
2022/05/02 00:01:14;;;;;;;;;;;;;;;11.71;65.29;99700.78;4880010;29;19928;-65
2022/05/02 00:03:43;;;;;;;;;;;;;;;11.66;65.77;99706.75;4879611;29;19924;-64
2022/05/02 00:06:11;;;;;;;;;;;;;;;11.69;65.57;99699.94;4880010;29;19931;-65
2022/05/02 00:08:41;;;;;;;;;;;;;;;11.72;65.48;99702.50;4879929;29;20006;-64
2022/05/02 00:11:13;;;;;;;;;;;;;;;11.78;65.58;99697.34;4883004;29;19967;-64
2022/05/02 00:13:41;;;;;;;;;;;;;;;11.82;65.09;99696.47;4882878;29;20027;-63
2022/05/02 00:16:10;;;;;;;;;;;;;;;11.79;64.92;99704.16;4866462;29;19928;-64
2022/05/02 00:18:38;;;;;;;;;;;;;;;11.76;65.06;99706.72;4883348;29;20071;-64
2022/05/02 00:21:07;;;;;;;;;;;;;;;11.69;65.18;99694.84;4883871;29;19924;-65
2022/05/02 00:23:36;;;;;;;;;;;;;;;11.65;64.91;99695.69;4882740;29;19983;-65
2022/05/02 00:26:06;;;;;;;;;;;;;;;11.60;65.21;99689.75;4882748;29;19975;-64
2022/05/02 00:28:35;;;;;;;;;;;;;;;11.56;65.23;99690.63;4882983;29;19924;-64
2022/05/02 00:31:04;;;;;;;;;;;;;;;11.51;65.35;99688.94;4882900;29;19955;-64
2022/05/02 00:33:33;;;;;;;;;;;;;;;11.48;65.23;99692.34;4882848;29;20260;-65
2022/05/02 00:36:01;;;;;;;;;;;;;;;11.46;65.17;99683.84;4882759;29;19923;-64
2022/05/02 00:38:30;;;;;;;;;;;;;;;11.45;65.49;99687.25;4882791;29;19975;-65
2022/05/02 00:40:59;;;;;;;;;;;;;;;11.48;65.32;99697.47;4882457;29;20022;-64
2022/05/02 00:43:29;;;;;;;;;;;;;;;11.48;65.20;99692.34;4882540;29;19963;-65
2022/05/02 00:45:59;;;;;;;;;;;;;;;11.55;64.96;99693.16;4882287;29;20006;-64
2022/05/02 00:48:29;;;;;;;;;;;;;;;11.53;64.96;99694.88;4882706;29;20003;-65
2022/05/02 00:50:58;;;;;;;;;;;;;;;11.45;64.84;99697.47;4882668;29;20023;-64
2022/05/02 00:53:27;;;;;;;;;;;;;;;11.43;65.33;99699.19;4882279;29;20302;-64
2022/05/02 00:55:55;;;;;;;;;;;;;;;11.45;64.84;99688.09;4880850;29;20011;-64
2022/05/02 00:58:24;;;;;;;;;;;;;;;11.44;65.09;99695.78;4882400;29;19924;-64
2022/05/02 01:00:54;;;;;;;;;;;;;;;11.45;64.57;99700.00;4882663;29;19996;-64
2022/05/02 01:03:27;;;;;;;;;;;;;;;11.47;64.93;99700.03;4882120;29;19970;-64
2022/05/02 01:08:36;;;;;;;;;;;;;;;11.53;64.37;99695.72;4882304;29;20268;-65
2022/05/02 01:11:04;;;;;;;;;;;;;;;11.53;64.16;99700.84;4881926;29;19923;-65
2022/05/02 01:13:38;;;;;;;;;;;;;;;11.53;64.58;99690.63;4881765;29;19977;-65
2022/05/02 01:16:15;;;;;;;;;;;;;;;11.52;64.46;99683.78;4881748;29;20030;-64
2022/05/02 01:18:45;;;;;;;;;;;;;;;11.55;64.34;99694.03;4881862;29;19923;-65
2022/05/02 01:21:15;;;;;;;;;;;;;;;11.53;64.73;99685.50;4882058;29;19923;-64
2022/05/02 01:23:44;;;;;;;;;;;;;;;11.53;64.56;99685.50;4881749;29;19924;-65
2022/05/02 01:26:13;;;;;;;;;;;;;;;11.56;64.65;99685.50;4881659;29;19931;-64
2022/05/02 01:28:43;;;;;;;;;;;;;;;11.56;64.41;99680.41;4881878;29;19967;-65
2022/05/02 01:31:12;;;;;;;;;;;;;;;11.59;64.54;99690.56;4881879;29;19927;-64
2022/05/02 01:33:41;;;;;;;;;;;;;;;11.54;64.54;99682.09;4882054;29;19924;-64
2022/05/02 01:36:09;;;;;;;;;;;;;;;11.48;64.65;99677.00;4881659;29;20389;-64
2022/05/02 01:38:40;;;;;;;;;;;;;;;11.38;64.88;99681.31;4881432;29;20011;-65
2022/05/02 01:41:08;;;;;;;;;;;;;;;11.35;65.26;99685.56;4882034;29;20294;-65
2022/05/02 01:43:38;;;;;;;;;;;;;;;11.32;65.59;99675.38;4881368;29;19934;-64
2022/05/02 01:46:07;;;;;;;;;;;;;;;11.30;65.42;99677.09;4881399;29;20375;-64
2022/05/02 01:48:36;;;;;;;;;;;;;;;11.34;65.61;99678.78;4881143;29;19930;-64
2022/05/02 01:51:05;;;;;;;;;;;;;;;11.38;65.81;99675.34;4881591;29;19923;-64
2022/05/02 01:53:33;;;;;;;;;;;;;;;11.40;65.40;99676.19;4881760;29;19931;-64
2022/05/02 01:56:04;;;;;;;;;;;;;;;11.40;65.43;99684.72;4881115;29;20370;-64
2022/05/02 01:58:33;;;;;;;;;;;;;;;11.40;65.59;99676.19;4881382;29;19945;-64
2022/05/02 02:01:02;;;;;;;;;;;;;;;11.35;65.56;99681.31;4881065;29;19924;-64
2022/05/02 02:03:30;;;;;;;;;;;;;;;11.29;65.56;99675.38;4881023;29;19930;-65
2022/05/02 02:05:59;;;;;;;;;;;;;;;11.26;65.67;99680.50;4880966;29;19937;-64
2022/05/02 02:08:29;;;;;;;;;;;;;;;11.25;65.88;99681.38;4881156;29;19933;-65
2022/05/02 02:10:59;;;;;;;;;;;;;;;11.19;65.66;99679.69;4881176;29;19934;-64
2022/05/02 02:13:30;;;;;;;;;;;;;;;11.11;65.70;99683.13;4864289;29;19966;-64
2022/05/02 02:16:00;;;;;;;;;;;;;;;11.07;66.13;99683.97;4881033;29;19928;-65
2022/05/02 02:18:29;;;;;;;;;;;;;;;11.02;66.41;99678.03;4881030;29;19924;-64
2022/05/02 02:20:58;;;;;;;;;;;;;;;10.97;66.19;99679.72;4880719;29;19927;-65
2022/05/02 02:23:27;;;;;;;;;;;;;;;10.93;66.56;99670.38;4880684;29;19930;-65
2022/05/02 02:25:55;;;;;;;;;;;;;;;10.85;66.39;99679.75;4880905;29;20434;-64
2022/05/02 02:28:24;;;;;;;;;;;;;;;10.83;66.95;99684.03;4864371;29;19967;-64
2022/05/02 02:30:54;;;;;;;;;;;;;;;10.83;66.93;99677.22;4880455;29;19923;-65
2022/05/02 02:33:23;;;;;;;;;;;;;;;10.88;66.76;99675.50;4863895;29;19924;-64
2022/05/02 02:35:51;;;;;;;;;;;;;;;10.97;66.61;99679.72;4880615;29;19927;-64
2022/05/02 02:38:20;;;;;;;;;;;;;;;10.99;66.56;99675.50;4880756;29;19972;-65
2022/05/02 02:40:49;;;;;;;;;;;;;;;10.89;66.57;99673.81;4880582;29;20370;-64
2022/05/02 02:43:18;;;;;;;;;;;;;;;10.84;66.65;99675.53;4863994;29;20392;-64
2022/05/02 02:45:46;;;;;;;;;;;;;;;10.78;66.38;99671.28;4880725;29;19924;-65
2022/05/02 02:48:17;;;;;;;;;;;;;;;10.76;66.71;99673.84;4880495;29;19924;-64
2022/05/02 02:50:45;;;;;;;;;;;;;;;10.73;66.71;99673.84;4880233;29;20018;-64
2022/05/02 02:53:14;;;;;;;;;;;;;;;10.70;66.69;99676.38;4880534;29;19952;-64
2022/05/02 02:55:43;;;;;;;;;;;;;;;10.65;67.18;99670.44;4880174;29;19924;-64
2022/05/02 02:58:12;;;;;;;;;;;;;;;10.67;67.13;99678.97;4880180;29;19951;-64
2022/05/02 03:00:40;;;;;;;;;;;;;;;10.67;66.74;99675.56;4880648;29;19963;-64
2022/05/02 03:03:09;;;;;;;;;;;;;;;10.67;66.99;99678.97;4880150;29;19955;-65
2022/05/02 03:08:17;;;;;;;;;;;;;;;10.66;66.88;99682.34;4880524;29;19930;-65
2022/05/02 03:10:45;;;;;;;;;;;;;;;10.65;66.32;99679.81;4879971;29;20003;-65
2022/05/02 03:13:14;;;;;;;;;;;;;;;10.66;66.38;99677.25;4880582;29;19924;-64
2022/05/02 03:15:43;;;;;;;;;;;;;;;10.66;66.45;99674.69;4880131;29;19955;-65
2022/05/02 03:18:11;;;;;;;;;;;;;;;10.65;66.54;99675.53;4880010;29;20018;-64
2022/05/02 03:20:41;;;;;;;;;;;;;;;10.62;66.88;99678.13;4879896;29;19979;-64
2022/05/02 03:23:10;;;;;;;;;;;;;;;10.59;66.57;99678.09;4880293;29;19975;-64
2022/05/02 03:25:39;;;;;;;;;;;;;;;10.56;66.36;99669.59;4879975;29;19927;-64
2022/05/02 03:28:08;;;;;;;;;;;;;;;10.51;66.93;99677.25;4880253;29;20022;-65
2022/05/02 03:30:36;;;;;;;;;;;;;;;10.42;66.75;99672.16;4879832;29;19969;-64
2022/05/02 03:33:05;;;;;;;;;;;;;;;10.38;66.52;99667.06;4879820;29;20365;-65
2022/05/02 03:35:34;;;;;;;;;;;;;;;10.36;66.60;99672.19;4880151;29;19924;-64
2022/05/02 03:38:04;;;;;;;;;;;;;;;10.38;66.80;99665.38;4880500;29;19923;-65
2022/05/02 03:40:33;;;;;;;;;;;;;;;10.35;66.93;99665.38;4879851;29;20392;-64
2022/05/02 03:43:02;;;;;;;;;;;;;;;10.28;67.13;99668.75;4879870;29;19923;-65
2022/05/02 03:45:30;;;;;;;;;;;;;;;10.27;67.60;99664.50;4881658;29;20366;-64
2022/05/02 03:47:59;;;;;;;;;;;;;;;10.24;67.12;99676.41;4884277;29;19931;-64
2022/05/02 03:50:28;;;;;;;;;;;;;;;10.23;67.28;99675.56;4883730;29;19924;-64
2022/05/02 03:52:56;;;;;;;;;;;;;;;10.25;67.80;99673.00;4883356;29;19924;-64
2022/05/02 03:55:27;;;;;;;;;;;;;;;10.28;67.40;99678.97;4883238;29;20275;-64
2022/05/02 03:57:56;;;;;;;;;;;;;;;10.35;67.82;99667.91;4883255;29;20014;-64
2022/05/02 04:00:25;;;;;;;;;;;;;;;10.44;67.34;99679.81;4883532;29;19971;-64
2022/05/02 04:02:53;;;;;;;;;;;;;;;10.48;67.58;99672.19;4883601;29;20122;-65
2022/05/02 04:05:22;;;;;;;;;;;;;;;10.52;67.40;99675.56;4883694;29;20342;-64
2022/05/02 04:07:51;;;;;;;;;;;;;;;10.54;66.96;99671.28;4883648;29;19924;-64
2022/05/02 04:10:19;;;;;;;;;;;;;;;10.51;67.30;99677.25;4883034;29;20002;-64
2022/05/02 04:12:49;;;;;;;;;;;;;;;10.54;67.20;99677.25;4882674;29;19931;-64
2022/05/02 04:15:19;;;;;;;;;;;;;;;10.55;67.52;99671.31;4883019;29;20371;-65
2022/05/02 04:17:47;;;;;;;;;;;;;;;10.62;67.33;99679.81;4882822;29;19923;-64
2022/05/02 04:20:16;;;;;;;;;;;;;;;10.67;66.36;99683.22;4883293;29;20348;-65
2022/05/02 04:22:45;;;;;;;;;;;;;;;10.73;66.50;99684.03;4883107;29;20374;-65
2022/05/02 04:25:13;;;;;;;;;;;;;;;10.86;66.51;99684.03;4883781;29;20274;-64
2022/05/02 04:27:42;;;;;;;;;;;;;;;10.95;66.60;99684.00;4882677;29;20371;-64
2022/05/02 04:30:13;;;;;;;;;;;;;;;11.02;66.13;99688.25;4882994;29;19923;-65
2022/05/02 04:32:42;;;;;;;;;;;;;;;11.08;66.18;99685.69;4882691;29;19931;-64
2022/05/02 04:35:11;;;;;;;;;;;;;;;11.19;66.09;99684.78;4882909;29;19924;-64
2022/05/02 04:37:40;;;;;;;;;;;;;;;11.26;66.01;99690.72;4882455;29;19927;-64
2022/05/02 04:40:09;;;;;;;;;;;;;;;11.36;65.99;99687.28;4882812;29;19923;-65
2022/05/02 04:42:38;;;;;;;;;;;;;;;11.45;65.70;99677.00;4882375;29;19924;-64
2022/05/02 04:45:07;;;;;;;;;;;;;;;11.58;65.47;99682.94;4882384;29;19928;-65
2022/05/02 04:47:37;;;;;;;;;;;;;;;11.64;65.57;99681.19;4882996;29;19976;-65
2022/05/02 04:50:06;;;;;;;;;;;;;;;11.77;65.14;99680.31;4882996;29;19963;-65
2022/05/02 04:52:36;;;;;;;;;;;;;;;11.84;64.85;99676.84;4882759;29;20278;-65
2022/05/02 04:55:05;;;;;;;;;;;;;;;11.92;64.74;99675.13;4882225;29;20375;-65
2022/05/02 04:57:33;;;;;;;;;;;;;;;11.94;64.50;99673.41;4882145;29;20324;-65
2022/05/02 05:00:04;;;;;;;;;;;;;;;12.01;64.81;99677.59;4882127;29;19963;-65
2022/05/02 05:02:33;;;;;;;;;;;;;;;12.14;64.67;99680.91;4882012;29;19930;-65
2022/05/02 05:05:03;;;;;;;;;;;;;;;12.21;64.82;99677.47;4882297;29;19931;-66
2022/05/02 05:07:32;;;;;;;;;;;;;;;12.30;64.64;99682.50;4882413;29;19972;-65
2022/05/02 05:10:00;;;;;;;;;;;;;;;12.43;64.21;99685.84;4881894;29;19979;-65
2022/05/02 05:12:34;;;;;;;;;;;;;;;12.56;64.29;99690.81;4881954;29;19927;-65
2022/05/02 05:17:50;;;;;;;;;;;;;;;12.75;63.89;99689.78;4881837;29;19928;-65
2022/05/02 05:20:22;;;;;;;;;;;;;;;12.93;63.76;99683.66;4882189;29;19967;-64
2022/05/02 05:23:02;;;;;;;;;;;;;;;13.03;63.43;99687.78;4881675;29;19955;-65
2022/05/02 05:25:42;;;;;;;;;;;;;;;13.06;63.08;99687.81;4881576;29;19931;-64
2022/05/02 05:28:27;;;;;;;;;;;;;;;13.20;62.87;99685.09;4882441;29;20394;-65
2022/05/02 05:31:01;;;;;;;;;;;;;;;13.30;62.24;99682.41;4881746;29;20435;-65
2022/05/02 05:33:34;;;;;;;;;;;;;;;13.39;61.92;99677.16;4881789;29;20398;-65
2022/05/02 05:36:09;;;;;;;;;;;;;;;13.56;61.78;99683.78;4882015;29;20002;-65
2022/05/02 05:38:48;;;;;;;;;;;;;;;13.65;61.27;99679.41;4881820;29;19946;-65
2022/05/02 05:41:28;;;;;;;;;;;;;;;13.76;61.12;99676.69;4881730;29;19923;-65
2022/05/02 05:44:08;;;;;;;;;;;;;;;13.91;60.89;99671.34;4881456;29;20368;-65
2022/05/02 05:46:48;;;;;;;;;;;;;;;13.99;59.95;99679.78;4881288;29;19971;-65
2022/05/02 05:49:22;;;;;;;;;;;;;;;14.06;59.70;99673.69;4881663;29;19924;-65
2022/05/02 05:51:56;;;;;;;;;;;;;;;14.14;58.96;99674.41;4881255;29;19923;-65
2022/05/02 05:54:33;;;;;;;;;;;;;;;14.27;58.90;99672.53;4881186;29;19924;-65
2022/05/02 05:57:04;;;;;;;;;;;;;;;14.43;58.54;99677.41;4881064;29;19982;-65
2022/05/02 05:59:41;;;;;;;;;;;;;;;14.48;58.48;99680.75;4864764;29;19924;-64
2022/05/02 06:02:16;;;;;;;;;;;;;;;14.55;58.13;99679.78;4864631;29;20335;-65
2022/05/02 06:04:48;;;;;;;;;;;;;;;14.71;57.52;99678.63;4881026;29;19931;-65
2022/05/02 06:07:20;;;;;;;;;;;;;;;14.81;57.31;99678.47;4880803;29;19963;-65
2022/05/02 06:09:49;;;;;;;;;;;;;;;14.91;57.52;99670.56;4880717;29;19924;-65
2022/05/02 06:12:20;;;;;;;;;;;;;;;14.99;57.02;99673.00;4881152;29;20332;-65
2022/05/02 06:20:09;;;;;;;;;;;;;;;15.22;56.41;99678.56;4880707;29;19966;-64
2022/05/02 06:22:41;;;;;;;;;;;;;;;15.37;56.12;99670.53;4864095;29;19972;-64
2022/05/02 06:25:10;;;;;;;;;;;;;;;15.55;55.73;99680.47;4880706;29;19930;-65
2022/05/02 06:27:41;;;;;;;;;;;;;;;15.73;55.39;99671.53;4881076;29;20401;-64
2022/05/02 06:30:10;;;;;;;;;;;;;;;15.91;55.46;99668.53;4881545;29;20394;-65
2022/05/02 06:32:42;;;;;;;;;;;;;;;16.07;55.26;99673.31;4881050;29;20446;-66
2022/05/02 06:35:11;;;;;;;;;;;;;;;16.26;54.96;99668.59;4864158;29;19991;-64
2022/05/02 06:37:48;;;;;;;;;;;;;;;16.39;54.33;99666.53;4880237;29;19928;-65
2022/05/02 06:40:20;;;;;;;;;;;;;;;16.48;54.03;99666.34;4880775;29;20074;-66
2022/05/02 06:42:51;;;;;;;;;;;;;;;16.60;53.62;99660.91;4880464;29;19924;-66
2022/05/02 06:45:29;;;;;;;;;;;;;;;16.74;52.90;99658.81;4880700;29;19924;-64
2022/05/02 06:48:07;;;;;;;;;;;;;;;16.80;52.56;99661.22;4876230;29;19960;-64
2022/05/02 06:50:37;;;;;;;;;;;;;;;16.90;52.22;99662.66;4861555;29;19924;-64
2022/05/02 06:53:15;;;;;;;;;;;;;;;17.03;51.70;99661.47;4845557;29;20446;-65
2022/05/02 06:55:50;;;;;;;;;;;;;;;17.10;50.78;99668.16;4869838;29;19924;-65
2022/05/02 06:58:26;;;;;;;;;;;;;;;17.18;50.90;99666.19;4888521;29;19931;-64
2022/05/02 07:00:58;;;;;;;;;;;;;;;17.39;50.80;99665.63;4898895;29;19975;-65
2022/05/02 07:03:41;;;;;;;;;;;;;;;17.49;50.97;99661.03;4885151;29;19924;-65
2022/05/02 07:06:11;;;;;;;;;;;;;;;17.65;50.67;99666.59;4874360;29;20006;-64
2022/05/02 07:08:50;;;;;;;;;;;;;;;17.85;51.09;99659.13;4873931;29;19939;-65
2022/05/02 07:11:20;;;;;;;;;;;;;;;17.91;50.93;99662.34;4861919;29;20283;-65
2022/05/02 07:14:03;;;;;;;;;;;;;;;18.02;50.59;99664.59;4879939;29;19966;-65
2022/05/02 07:16:34;;;;;;;;;;;;;;;18.15;50.16;99662.47;4880088;29;19927;-66
2022/05/02 07:19:23;;;;;;;;;;;;;;;18.21;50.02;99662.28;4881106;29;20282;-66
2022/05/02 07:21:56;;;;;;;;;;;;;;;18.25;49.79;99654.38;4884236;29;20343;-65
2022/05/02 07:24:43;;;;;;;;;;;;;;;18.38;49.85;99660.84;4883301;29;20007;-65
2022/05/02 07:27:20;;;;;;;;;;;;;;;18.63;49.31;99671.25;4865068;29;20368;-64
2022/05/02 07:29:51;;;;;;;;;;;;;;;18.86;48.22;99658.38;4865223;29;19955;-65
2022/05/02 07:32:24;;;;;;;;;;;;;;;18.89;47.92;99667.75;4865105;29;19931;-65
2022/05/02 07:34:53;;;;;;;;;;;;;;;18.91;47.08;99655.66;4865744;29;19931;-65
2022/05/02 07:37:23;;;;;;;;;;;;;;;18.90;46.44;99659.13;4865016;29;19976;-65
2022/05/02 07:39:52;;;;;;;;;;;;;;;19.05;46.55;99653.41;4865015;29;19967;-66
2022/05/02 07:42:24;;;;;;;;;;;;;;;19.08;45.08;99653.28;4864914;29;20007;-65
2022/05/02 07:44:56;;;;;;;;;;;;;;;19.17;45.08;99653.81;4865230;29;19954;-65
2022/05/02 07:47:25;;;;;;;;;;;;;;;19.27;44.75;99654.31;4878542;29;20387;-65
2022/05/02 07:49:56;;;;;;;;;;;;;;;19.50;45.52;99656.94;4883188;29;19928;-65
2022/05/02 07:52:26;;;;;;;;;;;;;;;19.64;44.49;99659.88;4882883;29;19924;-66
2022/05/02 07:54:56;;;;;;;;;;;;;;;19.82;44.65;99651.38;4881550;29;19931;-66
2022/05/02 07:57:28;;;;;;;;;;;;;;;19.87;42.98;99651.19;4883032;29;19928;-65
2022/05/02 08:00:00;;;;;;;;;;;;;;;19.84;41.81;99646.16;4882151;29;19924;-64
2022/05/02 08:02:39;;;;;;;;;;;;;;;19.85;41.97;99643.50;4882842;29;20405;-64
2022/05/02 08:05:28;;;;;;;;;;;;;;;19.95;42.30;99642.22;4882016;29;19923;-64
2022/05/02 08:08:02;;;;;;;;;;;;;;;20.21;42.26;99645.53;4882824;29;20263;-65
2022/05/02 08:10:38;;;;;;;;;;;;;;;20.48;42.62;99634.06;4883459;29;20418;-64
2022/05/02 08:13:16;;;;;;;;;;;;;;;20.77;42.42;99645.81;4883046;29;19948;-65
2022/05/02 08:15:50;;;;;;;;;;;;;;;20.86;41.33;99638.47;4883402;29;20399;-65
2022/05/02 08:18:27;;;;;;;;;;;;;;;20.95;40.59;99640.66;4882881;29;19924;-65
2022/05/02 08:20:58;;;;;;;;;;;;;;;21.13;40.72;99631.25;4883102;29;19974;-65
2022/05/02 08:29:07;;;;;;;;;;;;;;;21.51;39.75;99634.72;4882953;29;19952;-64
2022/05/02 08:31:41;;;;;;;;;;;;;;;21.43;39.25;99626.44;4882009;29;19966;-65
2022/05/02 08:34:16;;;;;;;;;;;;;;;21.30;38.92;99632.19;4882659;29;20018;-65
2022/05/02 08:36:51;;;;;;;;;;;;;;;21.22;38.59;99626.50;4882911;29;20364;-65
2022/05/02 08:39:25;;;;;;;;;;;;;;;21.16;38.11;99629.34;4882515;29;19976;-64
2022/05/02 08:42:08;;;;;;;;;;;;;;;21.35;39.68;99619.81;4882872;29;20315;-65
2022/05/02 08:44:52;;;;;;;;;;;;;;;21.42;40.12;99619.56;4881008;29;20370;-66
2022/05/02 08:47:34;;;;;;;;;;;;;;;21.53;40.25;99617.31;4879990;29;20271;-65
2022/05/02 08:50:13;;;;;;;;;;;;;;;21.69;40.58;99618.28;4882178;29;19924;-65
2022/05/02 08:52:56;;;;;;;;;;;;;;;21.78;39.99;99617.84;4882914;29;20255;-65
2022/05/02 08:55:40;;;;;;;;;;;;;;;21.88;40.22;99609.56;4866012;29;19996;-65
2022/05/02 08:58:23;;;;;;;;;;;;;;;21.87;38.35;99613.09;4881839;29;20019;-65
2022/05/02 09:01:08;;;;;;;;;;;;;;;21.98;37.85;99610.81;4882009;29;19971;-65
2022/05/02 09:03:57;;;;;;;;;;;;;;;21.86;37.54;99611.41;4894164;29;19923;-65
2022/05/02 09:06:36;;;;;;;;;;;;;;;21.88;38.27;99606.16;4877060;29;19930;-65
2022/05/02 09:09:23;;;;;;;;;;;;;;;22.06;38.30;99607.84;4882030;29;19923;-65
2022/05/02 09:12:02;;;;;;;;;;;;;;;22.14;36.98;99600.53;4881971;29;20014;-65
2022/05/02 09:14:50;;;;;;;;;;;;;;;22.18;36.76;99607.25;4881734;29;19931;-65
2022/05/02 09:17:42;;;;;;;;;;;;;;;22.46;38.71;99607.56;4880963;29;19988;-66
2022/05/02 09:20:23;;;;;;;;;;;;;;;22.43;39.06;99602.53;4879240;29;19930;-65
2022/05/02 09:23:25;;;;;;;;;;;;;;;22.43;38.22;99601.69;4881629;29;19924;-65
2022/05/02 09:26:17;;;;;;;;;;;;;;;22.45;37.57;99594.63;4882017;29;19988;-65
2022/05/02 09:28:57;;;;;;;;;;;;;;;22.59;38.17;99595.63;4881888;29;19930;-65
2022/05/02 09:31:38;;;;;;;;;;;;;;;22.74;36.47;99585.38;4876776;29;19928;-65
2022/05/02 09:34:16;;;;;;;;;;;;;;;22.92;35.23;99592.22;4867535;29;19931;-66
2022/05/02 09:36:55;;;;;;;;;;;;;;;22.91;36.35;99588.78;4881389;29;19959;-64
2022/05/02 09:39:25;;;;;;;;;;;;;;;22.92;36.54;99585.25;4882262;29;19931;-66
2022/05/02 09:42:02;;;;;;;;;;;;;;;23.02;37.01;99586.44;4888519;29;19940;-65
2022/05/02 09:50:12;;;;;;;;;;;;;;;22.81;34.10;99578.91;4899883;29;19927;-64
2022/05/02 09:52:49;;;;;;;;;;;;;;;22.74;34.61;99585.38;4900574;29;19931;-65
2022/05/02 09:58:31;;;;;;;;;;;;;;;22.93;35.17;99573.91;4899625;29;20021;-65
2022/05/02 10:01:07;;;;;;;;;;;;;;;22.84;36.05;99581.38;4895266;29;20019;-66
2022/05/02 10:03:40;;;;;;;;;;;;;;;22.58;35.65;99580.91;4854047;29;19928;-64
2022/05/02 10:06:22;;;;;;;;;;;;;;;22.47;35.76;99572.81;4850069;29;20391;-64
2022/05/02 10:09:01;;;;;;;;;;;;;;;22.27;35.72;99569.53;4881207;29;19923;-65
2022/05/02 10:11:40;;;;;;;;;;;;;;;22.07;34.50;99562.75;4880871;29;19924;-65
2022/05/02 10:14:24;;;;;;;;;;;;;;;22.01;35.08;99563.03;4871736;29;19951;-64
2022/05/02 10:16:54;;;;;;;;;;;;;;;21.72;36.95;99563.56;4829759;29;20031;-64
2022/05/02 10:19:31;;;;;;;;;;;;;;;21.55;37.01;99563.50;4880693;29;19923;-64
2022/05/02 10:22:08;;;;;;;;;;;;;;;21.48;38.01;99559.53;4881013;29;19971;-64
2022/05/02 10:24:47;;;;;;;;;;;;;;;21.46;38.86;99558.75;4880909;29;19942;-64
2022/05/02 10:27:24;;;;;;;;;;;;;;;21.33;40.86;99559.34;4880844;29;19940;-64
2022/05/02 10:30:03;;;;;;;;;;;;;;;21.25;41.66;99556.28;4880882;29;20023;-64
2022/05/02 10:32:42;;;;;;;;;;;;;;;21.23;42.09;99555.50;4880634;29;19931;-64
2022/05/02 10:35:14;;;;;;;;;;;;;;;21.19;40.85;99555.69;4880208;29;19930;-64
2022/05/02 10:37:44;;;;;;;;;;;;;;;21.25;40.21;99551.06;4880454;29;19931;-64
2022/05/02 10:40:13;;;;;;;;;;;;;;;21.27;39.77;99549.25;4880664;29;19930;-64
2022/05/02 10:42:50;;;;;;;;;;;;;;;21.24;39.06;99549.38;4880654;29;19923;-64
2022/05/02 10:45:19;;;;;;;;;;;;;;;21.24;38.34;99549.38;4880717;29;19923;-64
2022/05/02 10:47:51;;;;;;;;;;;;;;;21.24;38.88;99543.34;4880243;29;20371;-64
2022/05/02 10:50:27;;;;;;;;;;;;;;;21.21;39.19;99544.31;4880900;29;20468;-65
2022/05/02 10:53:08;;;;;;;;;;;;;;;21.19;39.17;99540.09;4879999;29;19934;-64
2022/05/02 10:55:39;;;;;;;;;;;;;;;21.26;39.81;99542.34;4873007;29;20409;-64
2022/05/02 10:58:10;;;;;;;;;;;;;;;21.28;40.34;99545.72;4890953;29;19928;-64
2022/05/02 11:00:47;;;;;;;;;;;;;;;21.31;39.43;99548.19;4880050;29;19930;-63
2022/05/02 11:03:29;;;;;;;;;;;;;;;21.33;39.05;99548.13;4880187;29;19970;-64
2022/05/02 11:06:03;;;;;;;;;;;;;;;21.34;39.07;99542.00;4880517;29;20287;-64
2022/05/02 11:08:35;;;;;;;;;;;;;;;21.39;39.28;99540.03;4880414;29;20006;-64
2022/05/02 11:11:05;;;;;;;;;;;;;;;21.36;38.71;99538.41;4880822;29;20026;-64
2022/05/02 11:13:40;;;;;;;;;;;;;;;21.37;39.02;99541.88;4879793;29;20422;-64
2022/05/02 11:16:18;;;;;;;;;;;;;;;21.46;38.68;99532.78;4880429;29;19979;-64
2022/05/02 11:21:41;;;;;;;;;;;;;;;21.70;39.85;99536.81;4879784;29;19959;-65
2022/05/02 11:24:20;;;;;;;;;;;;;;;21.77;38.91;99533.00;4880056;29;20386;-65
2022/05/02 11:26:58;;;;;;;;;;;;;;;21.87;38.38;99536.88;4879869;29;19924;-65
2022/05/02 11:29:32;;;;;;;;;;;;;;;22.09;38.59;99534.91;4879981;29;20383;-65
2022/05/02 11:32:03;;;;;;;;;;;;;;;22.40;38.19;99532.44;4878788;29;19930;-64
2022/05/02 11:34:38;;;;;;;;;;;;;;;22.64;36.77;99522.56;4879953;29;20371;-65
2022/05/02 11:37:09;;;;;;;;;;;;;;;22.88;36.41;99520.41;4879972;29;19927;-65
2022/05/02 11:39:46;;;;;;;;;;;;;;;22.96;35.77;99513.84;4880094;29;20358;-65
2022/05/02 11:42:18;;;;;;;;;;;;;;;23.13;36.01;99515.56;4879795;29;20364;-65
2022/05/02 11:44:49;;;;;;;;;;;;;;;23.30;34.94;99518.06;4879071;29;19934;-64
2022/05/02 11:47:20;;;;;;;;;;;;;;;23.25;34.56;99520.13;4880540;29;19968;-65
2022/05/02 11:49:54;;;;;;;;;;;;;;;23.29;34.73;99517.25;4879206;29;20026;-66
2022/05/02 11:52:35;;;;;;;;;;;;;;;23.27;34.13;99518.25;4872444;29;20358;-64
2022/05/02 11:55:07;;;;;;;;;;;;;;;23.13;33.85;99515.56;4880399;29;20006;-64
2022/05/02 11:57:36;;;;;;;;;;;;;;;23.29;36.68;99521.63;4880022;29;20394;-64
2022/05/02 12:00:11;;;;;;;;;;;;;;;23.24;37.82;99521.03;4862862;29;20339;-64
2022/05/02 12:02:48;;;;;;;;;;;;;;;23.20;38.63;99514.31;4878509;29;19924;-65
2022/05/02 12:05:23;;;;;;;;;;;;;;;23.19;38.84;99516.06;4876845;29;19923;-66
2022/05/02 12:07:53;;;;;;;;;;;;;;;23.17;38.37;99512.72;4877761;29;19970;-64
2022/05/02 12:10:32;;;;;;;;;;;;;;;23.12;38.30;99519.94;4864807;29;19923;-65
2022/05/02 12:13:01;;;;;;;;;;;;;;;22.98;38.47;99511.19;4864170;29;19995;-63
2022/05/02 12:15:30;;;;;;;;;;;;;;;23.05;38.50;99516.00;4880861;29;19923;-64
2022/05/02 12:18:03;;;;;;;;;;;;;;;23.01;37.43;99506.66;4882783;29;19924;-64
2022/05/02 12:20:37;;;;;;;;;;;;;;;22.99;37.43;99498.09;4882764;29;19923;-64
2022/05/02 12:23:07;;;;;;;;;;;;;;;23.15;37.34;99505.91;4892112;29;19974;-63
2022/05/02 12:25:47;;;;;;;;;;;;;;;23.27;37.05;99494.81;4887316;29;19924;-64
2022/05/02 12:28:18;;;;;;;;;;;;;;;23.29;36.42;99503.38;4881511;29;19995;-64
2022/05/02 12:30:51;;;;;;;;;;;;;;;23.33;36.92;99502.28;4882251;29;20294;-64
2022/05/02 12:33:20;;;;;;;;;;;;;;;23.38;36.61;99500.28;4882170;29;20382;-64
2022/05/02 12:35:49;;;;;;;;;;;;;;;23.38;35.86;99494.25;4882408;29;20022;-64
2022/05/02 12:38:23;;;;;;;;;;;;;;;23.14;36.21;99491.19;4876316;29;19931;-64
2022/05/02 12:41:01;;;;;;;;;;;;;;;22.90;37.38;99492.53;4884138;29;20356;-64
2022/05/02 12:43:43;;;;;;;;;;;;;;;22.99;37.94;99490.28;4880666;29;19931;-64
2022/05/02 12:46:11;;;;;;;;;;;;;;;23.04;38.33;99484.81;4866078;29;20290;-64
2022/05/02 12:48:42;;;;;;;;;;;;;;;23.09;38.66;99485.41;4882419;29;19924;-64
2022/05/02 12:51:16;;;;;;;;;;;;;;;23.18;38.48;99477.91;4882322;29;19970;-64
2022/05/02 12:56:24;;;;;;;;;;;;;;;23.31;37.31;99484.16;4884104;29;19924;-64
2022/05/02 13:01:45;;;;;;;;;;;;;;;22.79;36.28;99485.31;4882127;29;20378;-65
2022/05/02 13:04:17;;;;;;;;;;;;;;;22.73;37.90;99484.78;4881097;29;20335;-65
2022/05/02 13:06:46;;;;;;;;;;;;;;;22.34;39.06;99485.91;4882194;29;19927;-65
2022/05/02 13:09:16;;;;;;;;;;;;;;;22.29;39.65;99485.31;4882206;29;20348;-64
2022/05/02 13:11:47;;;;;;;;;;;;;;;22.24;38.97;99484.75;4882998;29;19972;-64
2022/05/02 13:14:20;;;;;;;;;;;;;;;22.28;37.57;99494.06;4881141;29;20294;-64
2022/05/02 13:16:49;;;;;;;;;;;;;;;22.14;36.05;99475.72;4891402;29;19959;-64
2022/05/02 13:19:18;;;;;;;;;;;;;;;22.20;36.18;99475.38;4894143;29;19931;-65
2022/05/02 13:21:56;;;;;;;;;;;;;;;22.28;35.81;99477.59;4880809;29;19946;-65
2022/05/02 13:24:25;;;;;;;;;;;;;;;22.35;35.30;99473.75;4872926;29;20087;-67
2022/05/02 13:27:05;;;;;;;;;;;;;;;22.36;35.18;99471.06;4870653;29;19931;-64
2022/05/02 13:29:48;;;;;;;;;;;;;;;22.41;36.27;99484.69;4880573;29;19934;-66
2022/05/02 13:32:27;;;;;;;;;;;;;;;22.10;36.77;99479.38;4876585;29;20454;-67
2022/05/02 13:35:10;;;;;;;;;;;;;;;21.90;36.75;99476.97;4882158;29;19927;-68
2022/05/02 13:37:50;;;;;;;;;;;;;;;21.86;36.49;99471.06;4879986;29;20371;-65
2022/05/02 13:40:20;;;;;;;;;;;;;;;21.96;36.86;99468.84;4881762;29;19927;-66
2022/05/02 13:42:53;;;;;;;;;;;;;;;22.05;36.63;99468.41;4881710;29;19950;-65
2022/05/02 13:45:32;;;;;;;;;;;;;;;22.02;36.53;99465.94;4881243;29;19923;-65
2022/05/02 13:48:15;;;;;;;;;;;;;;;22.06;36.72;99464.88;4881346;29;19958;-65
2022/05/02 13:50:52;;;;;;;;;;;;;;;22.20;36.16;99465.00;4880549;29;20018;-64
2022/05/02 13:53:35;;;;;;;;;;;;;;;22.37;36.16;99451.97;4863851;29;19974;-64